Portada
METAR-TAF:

METAR-TAF

Aeroports :

Bangalore, Índia

latitud: 13-11-56N, longitud: 077-42-20E, altitud: 915 m

Observació

L'informe es va fer fa 15 minuts, a les 01:00 UTC
Vent calma
Temperatura 22°C
Humitat 100%
Pressió 1014 hPa
Visibilitat: 6000 m
Núvols disperses a una alçada de 1500 ft

METAR: VOBL 240100Z VRB00KT 6000 SCT015 22/22 Q1014 NOSIG

Hora: 06:45 (01:15 UTC)

Pronòstic

L'informe es va fer fa 2 hores i 15 minuts, a les 23:00 UTC
Pronòstic vàlid del 24 a les 00 UTC al 25 a les 06 UTC
Vent 10 kt del Oest
Visibilitat: 6000 m
Núvols disperses a una alçada de 1500 ft
Temporalment
l' 24 a les 09 UTC al 24 a les 15 UTC
Visibilitat: 4000 m
Núvols disperses a una alçada de 1500 ft
Núvols disperses a una alçada de 2000 ft
Escasses núvols a una alçada de 2500 ft, Cumulonimbus.
tempesta, pluja, pluja

TAF: VOBL 232300Z 2400/2506 27010KT 6000 SCT015 TEMPO 2409/2415 4000 TSRA RA SCT015 SCT020 FEW025CB

Observacions i pronòstics meteorològics de més de 4000 aeroports (METAR i TAF).

Les estacions disponibles són els punts grocs i vermells al mapa.

Posi el ratolí al punt desitjat per veure el nom de l'estació.

Feu clic per veure les observacions i els pronòstics meteorològics.

Per canviar el mapa: feu clic els botons verds amb una creu de color negre per apropar; al botó verd amb un guió per allunyar la imatge; o en les fletxes verdes per a mapes adjacents.


METAR-TAF: